createdAt,value
2023-06-28T00:00:57.490Z,101923.19
2023-06-28T00:03:24.028Z,101927.78
2023-06-28T00:05:50.493Z,101923.06
2023-06-28T00:08:17.021Z,101915.34
2023-06-28T00:10:43.761Z,101920.13
2023-06-28T00:13:10.381Z,101920.56
2023-06-28T00:15:36.971Z,101912.72
2023-06-28T00:18:04.043Z,101906.13
2023-06-28T00:20:31.195Z,101905.84
2023-06-28T00:22:57.760Z,101907.66
2023-06-28T00:25:24.313Z,101902.72
2023-06-28T00:27:50.911Z,101893.59
2023-06-28T00:30:17.819Z,101901.97
2023-06-28T00:32:44.665Z,101892.69
2023-06-28T00:35:11.179Z,101894.41
2023-06-28T00:37:37.716Z,101898.66
2023-06-28T00:40:06.927Z,101903.09
2023-06-28T00:42:33.654Z,101897.75
2023-06-28T00:45:00.655Z,101886.91
2023-06-28T00:47:28.749Z,101905.88
2023-06-28T00:49:56.403Z,101899.38
2023-06-28T00:52:23.216Z,101898.56
2023-06-28T00:54:50.273Z,101877.69
2023-06-28T00:57:16.932Z,101901.19
2023-06-28T00:59:43.812Z,101913.03
2023-06-28T01:02:11.487Z,101904.25
2023-06-28T01:04:39.110Z,101901.00
2023-06-28T01:07:05.920Z,101907.50
2023-06-28T01:09:32.731Z,101866.94
2023-06-28T01:11:59.659Z,101902.06
2023-06-28T01:14:26.506Z,101906.06
2023-06-28T01:16:56.242Z,101901.72
2023-06-28T01:19:27.377Z,101883.84
2023-06-28T01:22:00.755Z,101901.72
2023-06-28T01:24:27.733Z,101892.88
2023-06-28T01:26:54.924Z,101896.66
2023-06-28T01:29:23.007Z,101894.75
2023-06-28T01:31:53.868Z,101902.25
2023-06-28T01:34:21.042Z,101899.47
2023-06-28T01:36:47.844Z,101899.84
2023-06-28T01:39:15.599Z,101901.56
2023-06-28T01:41:42.724Z,101906.06
2023-06-28T01:44:09.234Z,101904.06
2023-06-28T01:46:36.026Z,101904.00
2023-06-28T01:49:02.933Z,101897.22
2023-06-28T01:51:29.535Z,101893.06
2023-06-28T01:53:56.610Z,101889.88
2023-06-28T01:56:23.120Z,101890.69
2023-06-28T01:58:49.568Z,101894.22
2023-06-28T02:01:16.112Z,101895.59
2023-06-28T02:03:42.670Z,101887.09
2023-06-28T02:06:09.875Z,101884.19
2023-06-28T02:08:36.506Z,101897.28
2023-06-28T02:11:03.040Z,101896.03
2023-06-28T02:13:29.585Z,101863.50
2023-06-28T02:15:56.567Z,101889.53
2023-06-28T02:18:26.265Z,101878.84
2023-06-28T02:20:52.944Z,101877.31
2023-06-28T02:23:22.275Z,101871.44
2023-06-28T02:25:48.822Z,101875.06
2023-06-28T02:28:15.818Z,101869.19
2023-06-28T02:30:42.545Z,101874.06
2023-06-28T02:33:09.338Z,101864.84
2023-06-28T02:35:35.826Z,101868.00
2023-06-28T02:38:02.311Z,101865.03
2023-06-28T02:40:28.813Z,101869.38
2023-06-28T02:42:55.350Z,101857.53
2023-06-28T02:45:21.827Z,101869.63
2023-06-28T02:47:48.312Z,101869.16
2023-06-28T02:50:14.912Z,101870.81
2023-06-28T02:52:41.422Z,101866.75
2023-06-28T02:55:08.888Z,101864.81
2023-06-28T02:57:35.525Z,101869.59
2023-06-28T03:00:02.222Z,101871.44
2023-06-28T03:02:28.866Z,101870.16
2023-06-28T03:04:55.375Z,101861.66
2023-06-28T03:07:21.979Z,101855.03
2023-06-28T03:09:48.552Z,101871.50
2023-06-28T03:12:15.044Z,101855.47
2023-06-28T03:14:41.574Z,101865.59
2023-06-28T03:17:08.368Z,101867.88
2023-06-28T03:19:35.383Z,101865.28
2023-06-28T03:22:02.288Z,101859.53
2023-06-28T03:24:29.527Z,101861.59
2023-06-28T03:26:56.619Z,101858.16
2023-06-28T03:29:23.184Z,101842.34
2023-06-28T03:31:49.763Z,101848.41
2023-06-28T03:34:17.837Z,101846.44
2023-06-28T03:36:54.420Z,101838.09
2023-06-28T03:39:29.775Z,101837.19
2023-06-28T03:41:56.249Z,101843.53
2023-06-28T03:44:22.746Z,101841.53
2023-06-28T03:46:49.226Z,101847.16
2023-06-28T03:49:15.703Z,101846.47
2023-06-28T03:51:42.211Z,101846.31
2023-06-28T03:54:08.676Z,101844.88
2023-06-28T03:56:35.176Z,101832.75
2023-06-28T03:59:01.776Z,101835.84
2023-06-28T04:01:28.302Z,101838.28
2023-06-28T04:03:54.836Z,101837.66
2023-06-28T04:06:21.403Z,101846.47
2023-06-28T04:08:48.170Z,101843.59
2023-06-28T04:11:14.781Z,101847.31
2023-06-28T04:13:41.259Z,101822.81
2023-06-28T04:16:07.743Z,101841.53
2023-06-28T04:18:34.256Z,101836.47
2023-06-28T04:21:00.750Z,101838.00
2023-06-28T04:23:27.215Z,101833.34
2023-06-28T04:25:54.430Z,101836.88
2023-06-28T04:28:20.961Z,101840.13
2023-06-28T04:30:47.469Z,101790.94
2023-06-28T04:33:19.349Z,101839.13
2023-06-28T04:35:49.012Z,101840.41
2023-06-28T04:38:15.948Z,101819.78
2023-06-28T04:40:42.732Z,101835.97
2023-06-28T04:43:11.524Z,101836.78
2023-06-28T04:45:38.866Z,101832.72
2023-06-28T04:48:06.858Z,101823.66
2023-06-28T04:50:34.699Z,101822.00
2023-06-28T04:53:02.025Z,101821.19
2023-06-28T04:55:34.030Z,101816.94
2023-06-28T04:58:04.443Z,101805.88
2023-06-28T05:00:31.377Z,101826.88
2023-06-28T05:02:58.791Z,101829.50
2023-06-28T05:05:25.938Z,101829.16
2023-06-28T05:07:55.761Z,101811.44
2023-06-28T05:10:24.641Z,101829.06
2023-06-28T05:12:52.815Z,101825.34
2023-06-28T05:15:20.077Z,101827.22
2023-06-28T05:17:46.991Z,101818.03
2023-06-28T05:20:15.533Z,101822.09
2023-06-28T05:22:45.376Z,101815.25
2023-06-28T05:25:12.021Z,101820.28
2023-06-28T05:27:38.555Z,101814.50
2023-06-28T05:30:05.733Z,101814.31
2023-06-28T05:32:32.539Z,101816.16
2023-06-28T05:34:59.151Z,101810.91
2023-06-28T05:37:25.682Z,101808.97
2023-06-28T05:39:52.232Z,101799.69
2023-06-28T05:42:18.757Z,101818.19
2023-06-28T05:44:45.251Z,101814.31
2023-06-28T05:47:11.802Z,101814.75
2023-06-28T05:49:39.114Z,101816.84
2023-06-28T05:52:06.448Z,101818.09
2023-06-28T05:54:32.959Z,101794.22
2023-06-28T05:56:59.473Z,101805.25
2023-06-28T05:59:25.987Z,101804.69
2023-06-28T06:01:55.428Z,101804.81
2023-06-28T06:04:22.349Z,101800.84
2023-06-28T06:06:48.879Z,101816.91
2023-06-28T06:09:15.416Z,101804.72
2023-06-28T06:11:41.884Z,101807.34
2023-06-28T06:14:08.583Z,101795.03
2023-06-28T06:16:35.072Z,101774.09
2023-06-28T06:19:01.602Z,101807.13
2023-06-28T06:21:28.167Z,101810.56
2023-06-28T06:23:54.761Z,101811.28
2023-06-28T06:26:21.206Z,101805.88
2023-06-28T06:28:47.754Z,101807.13
2023-06-28T06:31:16.193Z,101805.13
2023-06-28T06:33:43.002Z,101809.66
2023-06-28T06:36:09.571Z,101803.47
2023-06-28T06:38:38.517Z,101799.56
2023-06-28T06:41:05.167Z,101798.41
2023-06-28T06:43:31.742Z,101805.69
2023-06-28T06:45:58.398Z,101780.19
2023-06-28T06:48:25.046Z,101815.22
2023-06-28T06:50:51.554Z,101818.00
2023-06-28T06:53:18.297Z,101814.84
2023-06-28T06:55:44.803Z,101812.66
2023-06-28T06:58:11.323Z,101821.19
2023-06-28T07:00:38.440Z,101817.81
2023-06-28T07:03:05.250Z,101821.44
2023-06-28T07:05:31.802Z,101817.28
2023-06-28T07:07:58.365Z,101824.63
2023-06-28T07:10:24.871Z,101819.69
2023-06-28T07:12:51.382Z,101804.28
2023-06-28T07:15:18.117Z,101826.78
2023-06-28T07:17:44.704Z,101822.53
2023-06-28T07:20:11.518Z,101819.06
2023-06-28T07:22:38.026Z,101818.59
2023-06-28T07:25:05.734Z,101820.63
2023-06-28T07:27:32.287Z,101826.31
2023-06-28T07:29:58.820Z,101831.38
2023-06-28T07:32:27.803Z,101829.88
2023-06-28T07:34:56.160Z,101813.13
2023-06-28T07:37:23.289Z,101825.59
2023-06-28T07:39:50.139Z,101826.25
2023-06-28T07:42:16.759Z,101818.91
2023-06-28T07:44:44.458Z,101824.06
2023-06-28T07:47:10.955Z,101826.47
2023-06-28T07:49:37.629Z,101834.25
2023-06-28T07:52:04.295Z,101836.06
2023-06-28T07:54:34.526Z,101829.38
2023-06-28T07:57:02.206Z,101826.63
2023-06-28T07:59:28.858Z,101834.69
2023-06-28T08:01:55.335Z,101829.44
2023-06-28T08:04:21.819Z,101818.56
2023-06-28T08:06:48.469Z,101816.44
2023-06-28T08:09:15.126Z,101816.69
2023-06-28T08:11:41.971Z,101818.75
2023-06-28T08:14:08.713Z,101809.84
2023-06-28T08:16:35.487Z,101813.78
2023-06-28T08:19:02.103Z,101776.50
2023-06-28T08:21:28.673Z,101824.34
2023-06-28T08:23:55.195Z,101826.19
2023-06-28T08:26:21.935Z,101822.34
2023-06-28T08:28:58.671Z,101814.22
2023-06-28T08:31:26.909Z,101809.59
2023-06-28T08:33:53.533Z,101826.44
2023-06-28T08:36:20.034Z,101828.88
2023-06-28T08:38:46.583Z,101833.97
2023-06-28T08:41:13.360Z,101815.84
2023-06-28T08:43:39.931Z,101830.50
2023-06-28T08:46:06.518Z,101824.25
2023-06-28T08:48:33.379Z,101831.28
2023-06-28T08:51:00.273Z,101829.69
2023-06-28T08:53:30.312Z,101824.69
2023-06-28T08:55:58.014Z,101830.63
2023-06-28T08:58:24.600Z,101819.50
2023-06-28T09:00:51.202Z,101822.47
2023-06-28T09:03:17.879Z,101825.53
2023-06-28T09:05:45.621Z,101821.53
2023-06-28T09:08:13.091Z,101824.22
2023-06-28T09:10:40.650Z,101829.53
2023-06-28T09:13:07.757Z,101820.19
2023-06-28T09:15:35.499Z,101831.97
2023-06-28T09:18:02.319Z,101830.16
2023-06-28T09:20:28.841Z,101825.72
2023-06-28T09:22:59.926Z,101829.38
2023-06-28T09:25:28.792Z,101812.56
2023-06-28T09:27:56.439Z,101825.41
2023-06-28T09:30:23.113Z,101817.34
2023-06-28T09:32:53.030Z,101820.59
2023-06-28T09:35:20.553Z,101824.69
2023-06-28T09:37:51.919Z,101825.09
2023-06-28T09:40:19.232Z,101784.38
2023-06-28T09:42:47.789Z,101815.63
2023-06-28T09:45:28.465Z,101810.75
2023-06-28T09:47:59.373Z,101773.47
2023-06-28T09:50:37.906Z,101813.56
2023-06-28T09:53:08.874Z,101818.03
2023-06-28T09:55:37.393Z,101805.25
2023-06-28T09:58:04.025Z,101813.38
2023-06-28T10:00:32.615Z,101812.56
2023-06-28T10:03:00.053Z,101815.81
2023-06-28T10:05:27.736Z,101810.72
2023-06-28T10:07:54.789Z,101819.00
2023-06-28T10:10:21.420Z,101820.97
2023-06-28T10:12:48.103Z,101814.03
2023-06-28T10:15:22.085Z,101816.59
2023-06-28T10:17:48.920Z,101803.22
2023-06-28T10:20:15.472Z,101816.78
2023-06-28T10:22:42.272Z,101822.84
2023-06-28T10:25:08.866Z,101817.28
2023-06-28T10:27:35.840Z,101814.38
2023-06-28T10:30:02.299Z,101812.59
2023-06-28T10:32:28.949Z,101810.94
2023-06-28T10:34:57.721Z,101803.16
2023-06-28T10:37:24.765Z,101807.44
2023-06-28T10:39:52.326Z,101805.41
2023-06-28T10:42:22.306Z,101808.34
2023-06-28T10:44:56.253Z,101804.91
2023-06-28T10:47:23.229Z,101778.00
2023-06-28T10:50:09.678Z,101804.94
2023-06-28T10:52:37.408Z,101802.28
2023-06-28T10:55:04.518Z,101801.69
2023-06-28T10:57:38.444Z,101792.06
2023-06-28T11:00:10.966Z,101802.47
2023-06-28T11:03:01.316Z,101797.25
2023-06-28T11:05:46.787Z,101779.81
2023-06-28T11:08:15.353Z,101794.59
2023-06-28T11:10:46.582Z,101807.88
2023-06-28T11:13:14.738Z,101796.41
2023-06-28T11:15:46.127Z,101800.19
2023-06-28T11:18:16.796Z,101796.31
2023-06-28T11:20:52.249Z,101797.13
2023-06-28T11:23:25.018Z,101803.09
2023-06-28T11:26:00.952Z,101801.44
2023-06-28T11:28:32.383Z,101794.91
2023-06-28T11:31:23.492Z,101803.78
2023-06-28T11:33:52.205Z,101798.03
2023-06-28T11:36:19.769Z,101794.34
2023-06-28T11:38:47.216Z,101793.84
2023-06-28T11:41:17.151Z,101795.72
2023-06-28T11:43:47.761Z,101788.34
2023-06-28T11:46:22.554Z,101794.22
2023-06-28T11:48:50.733Z,101783.50
2023-06-28T11:51:17.624Z,101784.41
2023-06-28T11:53:50.457Z,101754.69
2023-06-28T11:56:16.953Z,101786.91
2023-06-28T11:58:43.464Z,101788.16
2023-06-28T12:01:20.610Z,101788.59
2023-06-28T12:03:47.147Z,101784.56
2023-06-28T12:06:14.054Z,101774.97
2023-06-28T12:08:41.907Z,101783.03
2023-06-28T12:11:17.082Z,101783.97
2023-06-28T12:13:44.995Z,101788.00
2023-06-28T12:16:22.571Z,101791.91
2023-06-28T12:18:54.660Z,101791.66
2023-06-28T12:21:25.688Z,101797.09
2023-06-28T12:23:52.648Z,101785.13
2023-06-28T12:26:21.753Z,101784.09
2023-06-28T12:28:49.979Z,101787.56
2023-06-28T12:31:17.113Z,101790.91
2023-06-28T12:33:44.330Z,101797.22
2023-06-28T12:36:17.158Z,101789.13
2023-06-28T12:38:45.440Z,101789.13
2023-06-28T12:41:14.051Z,101782.88
2023-06-28T12:43:42.678Z,101792.88
2023-06-28T12:46:11.307Z,101786.81
2023-06-28T12:48:38.148Z,101792.63
2023-06-28T12:51:04.713Z,101784.84
2023-06-28T12:53:31.236Z,101787.00
2023-06-28T12:55:57.786Z,101786.75
2023-06-28T12:58:24.243Z,101790.44
2023-06-28T13:00:50.797Z,101788.34
2023-06-28T13:03:20.015Z,101787.97
2023-06-28T13:05:48.654Z,101781.94
2023-06-28T13:08:15.308Z,101768.00
2023-06-28T13:10:42.147Z,101788.28
2023-06-28T13:13:09.050Z,101787.81
2023-06-28T13:15:37.502Z,101779.97
2023-06-28T13:18:04.767Z,101777.47
2023-06-28T13:20:31.324Z,101784.41
2023-06-28T13:22:57.928Z,101786.59
2023-06-28T13:25:24.527Z,101787.19
2023-06-28T13:27:51.019Z,101789.69
2023-06-28T13:30:17.527Z,101787.09
2023-06-28T13:32:44.091Z,101793.06
2023-06-28T13:35:12.262Z,101786.09
2023-06-28T13:37:38.791Z,101787.25
2023-06-28T13:40:06.617Z,101779.00
2023-06-28T13:42:33.773Z,101783.44
2023-06-28T13:45:00.295Z,101787.41
2023-06-28T13:47:27.043Z,101780.88
2023-06-28T13:49:53.582Z,101781.53
2023-06-28T13:52:21.007Z,101779.66
2023-06-28T13:54:47.613Z,101784.56
2023-06-28T13:57:14.763Z,101787.69
2023-06-28T13:59:41.269Z,101785.50
2023-06-28T14:02:07.961Z,101766.84
2023-06-28T14:04:34.473Z,101774.84
2023-06-28T14:07:00.981Z,101775.09
2023-06-28T14:09:27.686Z,101778.47
2023-06-28T14:11:54.133Z,101773.84
2023-06-28T14:14:20.732Z,101774.94
2023-06-28T14:16:47.253Z,101773.47
2023-06-28T14:19:13.716Z,101766.41
2023-06-28T14:21:40.174Z,101769.97
2023-06-28T14:24:07.020Z,101764.84
2023-06-28T14:26:33.549Z,101761.63
2023-06-28T14:29:01.531Z,101766.84
2023-06-28T14:31:28.157Z,101766.34
2023-06-28T14:33:54.655Z,101766.78
2023-06-28T14:36:21.119Z,101761.41
2023-06-28T14:38:47.567Z,101770.16
2023-06-28T14:41:14.124Z,101764.94
2023-06-28T14:43:40.649Z,101771.19
2023-06-28T14:46:07.194Z,101764.88
2023-06-28T14:48:33.664Z,101767.44
2023-06-28T14:51:00.191Z,101759.78
2023-06-28T14:53:26.667Z,101758.56
2023-06-28T14:55:53.196Z,101752.25
2023-06-28T14:58:19.682Z,101757.00
2023-06-28T15:00:46.718Z,101758.97
2023-06-28T15:03:13.817Z,101756.34
2023-06-28T15:05:42.169Z,101763.22
2023-06-28T15:08:08.951Z,101759.75
2023-06-28T15:10:35.537Z,101772.59
2023-06-28T15:13:02.014Z,101771.19
2023-06-28T15:15:29.857Z,101774.56
2023-06-28T15:17:56.499Z,101772.28
2023-06-28T15:20:34.441Z,101759.66
2023-06-28T15:23:07.206Z,101770.31
2023-06-28T15:25:34.179Z,101765.59
2023-06-28T15:28:00.643Z,101748.41
2023-06-28T15:30:27.280Z,101760.88
2023-06-28T15:32:54.015Z,101765.16
2023-06-28T15:35:21.257Z,101763.91
2023-06-28T15:37:48.597Z,101756.47
2023-06-28T15:40:15.524Z,101733.84
2023-06-28T15:42:42.194Z,101757.00
2023-06-28T15:45:09.129Z,101747.28
2023-06-28T15:47:35.665Z,101750.38
2023-06-28T15:50:02.381Z,101746.50
2023-06-28T15:52:31.134Z,101746.03
2023-06-28T15:55:01.546Z,101745.56
2023-06-28T15:57:28.237Z,101740.72
2023-06-28T15:59:54.826Z,101704.44
2023-06-28T16:02:21.927Z,101748.72
2023-06-28T16:04:48.808Z,101745.97
2023-06-28T16:07:15.487Z,101746.34
2023-06-28T16:09:42.194Z,101746.50
2023-06-28T16:12:08.989Z,101747.56
2023-06-28T16:14:35.520Z,101741.97
2023-06-28T16:17:04.257Z,101746.81
2023-06-28T16:19:31.086Z,101746.59
2023-06-28T16:21:57.606Z,101739.91
2023-06-28T16:24:24.110Z,101743.97
2023-06-28T16:26:50.653Z,101732.44
2023-06-28T16:29:17.192Z,101737.47
2023-06-28T16:31:43.880Z,101734.47
2023-06-28T16:34:10.380Z,101735.66
2023-06-28T16:36:41.895Z,101737.47
2023-06-28T16:39:09.229Z,101732.06
2023-06-28T16:41:35.846Z,101719.34
2023-06-28T16:44:02.370Z,101732.34
2023-06-28T16:46:28.867Z,101729.47
2023-06-28T16:48:55.346Z,101733.28
2023-06-28T16:51:22.203Z,101726.41
2023-06-28T16:53:48.725Z,101726.75
2023-06-28T16:56:15.250Z,101726.53
2023-06-28T16:58:41.801Z,101728.50
2023-06-28T17:01:08.399Z,101728.06
2023-06-28T17:03:34.978Z,101725.34
2023-06-28T17:06:01.648Z,101718.22
2023-06-28T17:08:29.274Z,101726.16
2023-06-28T17:10:55.804Z,101732.81
2023-06-28T17:13:22.279Z,101726.31
2023-06-28T17:15:48.815Z,101728.13
2023-06-28T17:18:15.361Z,101729.06
2023-06-28T17:20:42.074Z,101734.00
2023-06-28T17:23:08.924Z,101731.69
2023-06-28T17:25:35.780Z,101736.78
2023-06-28T17:28:02.369Z,101734.13
2023-06-28T17:30:30.184Z,101728.44
2023-06-28T17:32:56.731Z,101732.09
2023-06-28T17:35:23.300Z,101725.63
2023-06-28T17:37:50.033Z,101723.88
2023-06-28T17:40:16.552Z,101733.41
2023-06-28T17:42:43.082Z,101725.56
2023-06-28T17:45:10.099Z,101728.66
2023-06-28T17:47:36.656Z,101733.16
2023-06-28T17:50:03.514Z,101735.88
2023-06-28T17:52:30.035Z,101737.25
2023-06-28T17:54:58.276Z,101728.72
2023-06-28T17:57:24.808Z,101732.31
2023-06-28T17:59:51.435Z,101732.19
2023-06-28T18:02:18.529Z,101735.44
2023-06-28T18:04:45.095Z,101733.00
2023-06-28T18:07:11.622Z,101741.72
2023-06-28T18:09:38.213Z,101747.59
2023-06-28T18:12:05.122Z,101738.88
2023-06-28T18:14:31.688Z,101740.25
2023-06-28T18:16:58.222Z,101733.28
2023-06-28T18:19:24.659Z,101738.69
2023-06-28T18:21:51.357Z,101707.56
2023-06-28T18:24:17.913Z,101736.63
2023-06-28T18:26:44.389Z,101735.19
2023-06-28T18:29:10.917Z,101746.56
2023-06-28T18:31:37.428Z,101741.13
2023-06-28T18:34:04.800Z,101737.69
2023-06-28T18:36:31.278Z,101727.41
2023-06-28T18:38:57.882Z,101738.69
2023-06-28T18:41:24.461Z,101742.75
2023-06-28T18:43:51.059Z,101736.94
2023-06-28T18:46:17.606Z,101728.72
2023-06-28T18:48:44.094Z,101737.84
2023-06-28T18:51:10.679Z,101741.81
2023-06-28T18:53:37.182Z,101736.06
2023-06-28T18:56:03.797Z,101692.69
2023-06-28T18:58:31.784Z,101729.19
2023-06-28T19:00:58.881Z,101729.41
2023-06-28T19:03:26.129Z,101733.66
2023-06-28T19:05:53.697Z,101721.19
2023-06-28T19:08:21.203Z,101732.50
2023-06-28T19:10:49.077Z,101726.84
2023-06-28T19:13:16.030Z,101728.47
2023-06-28T19:15:42.524Z,101729.09
2023-06-28T19:18:09.200Z,101719.59
2023-06-28T19:20:38.594Z,101731.38
2023-06-28T19:23:05.426Z,101722.13
2023-06-28T19:25:32.024Z,101716.19
2023-06-28T19:27:58.502Z,101725.16
2023-06-28T19:30:25.033Z,101722.72
2023-06-28T19:32:51.607Z,101717.66
2023-06-28T19:35:18.257Z,101710.09
2023-06-28T19:37:44.758Z,101719.13
2023-06-28T19:40:12.029Z,101720.50
2023-06-28T19:42:38.550Z,101724.56
2023-06-28T19:45:06.118Z,101720.50
2023-06-28T19:47:32.796Z,101726.25
2023-06-28T19:49:59.310Z,101719.19
2023-06-28T19:52:27.972Z,101725.88
2023-06-28T19:54:54.485Z,101723.03
2023-06-28T19:57:21.016Z,101724.84
2023-06-28T19:59:47.521Z,101725.09
2023-06-28T20:02:14.150Z,101719.66
2023-06-28T20:04:40.874Z,101722.66
2023-06-28T20:07:07.558Z,101706.13
2023-06-28T20:09:34.122Z,101724.09
2023-06-28T20:12:00.556Z,101730.84
2023-06-28T20:14:27.233Z,101728.22
2023-06-28T20:16:54.115Z,101728.06
2023-06-28T20:19:20.692Z,101728.88
2023-06-28T20:21:48.111Z,101724.00
2023-06-28T20:24:14.688Z,101724.88
2023-06-28T20:26:41.136Z,101725.69
2023-06-28T20:29:07.596Z,101726.69
2023-06-28T20:31:34.336Z,101725.91
2023-06-28T20:34:00.944Z,101724.94
2023-06-28T20:36:27.529Z,101720.88
2023-06-28T20:38:54.090Z,101725.16
2023-06-28T20:41:25.788Z,101727.38
2023-06-28T20:43:54.132Z,101711.56
2023-06-28T20:46:20.711Z,101724.56
2023-06-28T20:48:47.304Z,101729.25
2023-06-28T20:51:14.647Z,101731.69
2023-06-28T20:53:43.719Z,101714.72
2023-06-28T20:56:11.074Z,101725.56
2023-06-28T20:58:37.595Z,101738.56
2023-06-28T21:01:06.926Z,101732.69
2023-06-28T21:03:33.692Z,101737.03
2023-06-28T21:06:00.142Z,101744.94
2023-06-28T21:08:27.562Z,101736.44
2023-06-28T21:10:54.503Z,101708.94
2023-06-28T21:13:21.168Z,101723.06
2023-06-28T21:15:48.295Z,101724.44
2023-06-28T21:18:15.159Z,101723.66
2023-06-28T21:20:41.874Z,101714.19
2023-06-28T21:23:08.441Z,101723.06
2023-06-28T21:25:35.757Z,101718.78
2023-06-28T21:28:02.286Z,101718.59
2023-06-28T21:30:28.931Z,101718.88
2023-06-28T21:32:55.423Z,101702.69
2023-06-28T21:35:24.231Z,101715.44
2023-06-28T21:37:50.747Z,101715.84
2023-06-28T21:40:17.291Z,101718.69
2023-06-28T21:42:43.826Z,101731.53
2023-06-28T21:45:10.846Z,101725.22
2023-06-28T21:47:37.477Z,101716.97
2023-06-28T21:50:05.036Z,101726.06
2023-06-28T21:52:31.506Z,101724.03
2023-06-28T21:54:57.997Z,101720.22
2023-06-28T21:57:24.460Z,101715.34
2023-06-28T21:59:51.026Z,101719.63
2023-06-28T22:02:17.872Z,101719.63
2023-06-28T22:04:44.514Z,101720.84
2023-06-28T22:07:11.046Z,101716.38
2023-06-28T22:09:37.635Z,101712.56
2023-06-28T22:12:06.072Z,101707.50
2023-06-28T22:14:32.763Z,101703.66
2023-06-28T22:16:59.409Z,101697.34
2023-06-28T22:19:27.521Z,101697.75
2023-06-28T22:21:55.710Z,101704.19
2023-06-28T22:24:22.274Z,101700.22
2023-06-28T22:26:48.818Z,101681.44
2023-06-28T22:29:15.338Z,101693.75
2023-06-28T22:31:41.840Z,101698.00
2023-06-28T22:34:08.337Z,101692.13
2023-06-28T22:36:37.308Z,101695.97
2023-06-28T22:39:06.774Z,101694.56
2023-06-28T22:41:34.150Z,101692.28
2023-06-28T22:44:00.666Z,101680.78
2023-06-28T22:46:27.306Z,101692.19
2023-06-28T22:48:53.814Z,101692.78
2023-06-28T22:51:20.320Z,101683.84
2023-06-28T22:53:48.138Z,101689.94
2023-06-28T22:56:16.236Z,101685.25
2023-06-28T22:58:42.982Z,101683.03
2023-06-28T23:01:11.211Z,101674.53
2023-06-28T23:03:37.803Z,101678.59
2023-06-28T23:06:04.412Z,101671.69
2023-06-28T23:08:32.752Z,101666.00
2023-06-28T23:10:59.264Z,101668.47
2023-06-28T23:13:25.791Z,101667.09
2023-06-28T23:15:52.302Z,101658.13
2023-06-28T23:18:21.705Z,101659.00
2023-06-28T23:20:51.749Z,101663.09
2023-06-28T23:23:19.264Z,101665.13
2023-06-28T23:25:52.651Z,101656.66
2023-06-28T23:28:19.791Z,101663.09
2023-06-28T23:30:46.816Z,101660.47
2023-06-28T23:33:16.499Z,101657.03
2023-06-28T23:35:46.571Z,101656.63
2023-06-28T23:38:13.841Z,101654.22
2023-06-28T23:40:41.244Z,101652.97
2023-06-28T23:43:08.491Z,101648.09
2023-06-28T23:45:41.908Z,101652.56
2023-06-28T23:48:09.258Z,101648.34
2023-06-28T23:50:35.815Z,101657.25
2023-06-28T23:53:03.078Z,101647.72
2023-06-28T23:55:30.139Z,101649.56
2023-06-28T23:57:57.645Z,101649.75
